Time;durP1;ratioP1;P1;durP2;ratioP2;P2;SDS_P1;SDS_P2;PMS_P1;PMS_P2;Temp;Humidity;BMP_temperature;BMP_pressure;BME280_temperature;BME280_humidity;BME280_pressure;Samples;Min_cycle;Max_cycle;Signal;HPM_P1;HPM_P2
2023/09/29 00:00:49;;;;;;;100.50;95.85;;;;;;;10.37;100.00;101464.09;5032617;28;20060;-74
2023/09/29 00:03:35;;;;;;;46.70;44.60;;;;;;;10.65;100.00;101458.91;5032409;28;20044;-74
2023/09/29 00:06:04;;;;;;;38.55;36.60;;;;;;;10.61;100.00;101457.63;5033014;28;20054;-73
2023/09/29 00:08:31;;;;;;;29.30;27.20;;;;;;;10.56;100.00;101457.38;5031818;28;20438;-73
2023/09/29 00:10:58;;;;;;;96.78;91.80;;;;;;;10.69;100.00;101462.84;5030422;28;20517;-73
2023/09/29 00:13:25;;;;;;;39.08;37.08;;;;;;;10.08;100.00;101462.28;5030578;28;20057;-73
2023/09/29 00:15:55;;;;;;;38.72;36.83;;;;;;;10.04;100.00;101464.47;5032503;28;20046;-73
2023/09/29 00:18:24;;;;;;;40.55;38.55;;;;;;;9.83;100.00;101467.88;5032640;28;20056;-74
2023/09/29 00:20:51;;;;;;;39.42;37.20;;;;;;;9.90;100.00;101461.84;5032724;28;20079;-73
2023/09/29 00:23:21;;;;;;;29.55;27.90;;;;;;;10.13;100.00;101473.16;5031324;28;20060;-73
2023/09/29 00:25:57;;;;;;;33.92;32.13;;;;;;;9.67;100.00;101468.03;5032333;28;20076;-74
2023/09/29 00:28:24;;;;;;;34.10;32.10;;;;;;;9.96;100.00;101474.38;5048870;28;20045;-73
2023/09/29 00:30:51;;;;;;;28.23;26.73;;;;;;;9.89;100.00;101474.25;5047736;28;20056;-73
2023/09/29 00:33:18;;;;;;;28.10;26.60;;;;;;;9.69;100.00;101470.53;5045864;28;20073;-73
2023/09/29 00:35:44;;;;;;;35.20;33.47;;;;;;;9.82;100.00;101479.47;5051627;28;20079;-74
2023/09/29 00:38:11;;;;;;;27.13;25.52;;;;;;;9.91;100.00;101476.75;5051626;28;20364;-74
2023/09/29 00:40:40;;;;;;;26.13;24.63;;;;;;;10.17;100.00;101470.97;5051946;28;20092;-74
2023/09/29 00:43:08;;;;;;;29.10;27.50;;;;;;;10.00;100.00;101471.16;5050254;28;20041;-73
2023/09/29 00:45:43;;;;;;;29.80;28.20;;;;;;;9.99;100.00;101469.53;5051956;28;20690;-74
2023/09/29 00:48:10;;;;;;;28.58;26.98;;;;;;;9.83;100.00;101465.22;5051252;28;20095;-73
2023/09/29 00:50:39;;;;;;;27.63;26.13;;;;;;;9.49;100.00;101472.84;5051662;28;20076;-73
2023/09/29 00:53:11;;;;;;;39.17;37.28;;;;;;;9.86;100.00;101471.97;5051022;28;20514;-73
2023/09/29 00:55:50;;;;;;;44.30;42.30;;;;;;;9.92;100.00;101463.28;5051171;28;20081;-73
2023/09/29 00:58:18;;;;;;;41.40;39.60;;;;;;;9.87;100.00;101473.63;5047089;28;20048;-73
2023/09/29 01:00:46;;;;;;;41.35;39.35;;;;;;;9.60;100.00;101464.47;5051568;28;20048;-74
2023/09/29 01:03:15;;;;;;;38.40;36.50;;;;;;;8.74;100.00;101469.13;5051179;28;20110;-74
2023/09/29 01:05:44;;;;;;;50.60;47.75;;;;;;;9.21;100.00;101467.31;5049481;28;20056;-74
2023/09/29 01:08:15;;;;;;;36.28;34.58;;;;;;;9.21;100.00;101467.31;5050958;28;20057;-74
2023/09/29 01:10:44;;;;;;;35.85;34.15;;;;;;;9.75;100.00;101470.63;5046032;28;20048;-73
2023/09/29 01:13:12;;;;;;;43.35;37.13;;;;;;;9.72;100.00;101475.47;5050824;28;20478;-74
2023/09/29 01:15:40;;;;;;;39.75;37.85;;;;;;;9.49;100.00;101481.63;5051218;28;20048;-74
2023/09/29 01:18:07;;;;;;;43.78;41.22;;;;;;;9.58;100.00;101477.06;5051602;28;20041;-74
2023/09/29 01:20:44;;;;;;;39.53;37.72;;;;;;;9.63;100.00;101480.03;5050826;28;20088;-74
2023/09/29 01:23:11;;;;;;;39.35;37.55;;;;;;;9.68;100.00;101482.94;5050491;28;20516;-74
2023/09/29 01:25:39;;;;;;;45.15;43.05;;;;;;;9.70;100.00;101477.47;5051536;28;20052;-74
2023/09/29 01:28:16;;;;;;;34.88;33.17;;;;;;;9.77;100.00;101476.56;5036541;28;20148;-74
2023/09/29 01:30:44;;;;;;;33.80;31.45;;;;;;;9.74;100.00;101486.69;5025171;28;20076;-73
2023/09/29 01:33:12;;;;;;;38.60;36.80;;;;;;;9.56;100.00;101487.88;5028328;28;20053;-74
2023/09/29 01:35:39;;;;;;;39.90;37.80;;;;;;;9.57;100.00;101489.53;5027686;28;20507;-73
2023/09/29 01:38:12;;;;;;;44.45;42.35;;;;;;;9.61;100.00;101485.50;5030866;28;20049;-73
2023/09/29 01:40:40;;;;;;;35.40;33.70;;;;;;;9.05;100.00;101486.81;5023085;28;20053;-74
2023/09/29 01:43:07;;;;;;;39.47;37.58;;;;;;;9.05;100.00;101492.13;5024047;28;20458;-74
2023/09/29 01:45:40;;;;;;;37.35;35.35;;;;;;;9.28;100.00;101498.22;5027963;28;20165;-74
2023/09/29 01:48:08;;;;;;;45.25;43.08;;;;;;;9.46;100.00;101497.09;5030292;28;20045;-73
2023/09/29 01:50:34;;;;;;;42.65;40.65;;;;;;;9.29;100.00;101499.88;5024993;28;20058;-74
2023/09/29 01:53:02;;;;;;;42.40;39.40;;;;;;;9.19;100.00;101504.59;5023230;28;20041;-74
2023/09/29 01:55:30;;;;;;;41.97;39.97;;;;;;;9.15;100.00;101500.66;5030572;28;20533;-73
2023/09/29 01:57:58;;;;;;;41.17;39.17;;;;;;;8.56;100.00;101511.75;5030474;28;20420;-73
2023/09/29 02:00:28;;;;;;;50.80;48.60;;;;;;;8.97;100.00;101513.38;5021170;28;20064;-74
2023/09/29 02:02:56;;;;;;;74.28;71.18;;;;;;;8.68;100.00;101510.41;5030461;28;20103;-73
2023/09/29 02:05:29;;;;;;;70.05;66.95;;;;;;;9.12;100.00;101506.31;5028802;28;20057;-73
2023/09/29 02:08:04;;;;;;;63.78;61.17;;;;;;;9.22;100.00;101503.41;5027483;28;20044;-74
2023/09/29 02:10:31;;;;;;;63.00;60.45;;;;;;;9.17;100.00;101517.22;5027923;28;20064;-74
2023/09/29 02:13:03;;;;;;;65.30;62.70;;;;;;;9.02;100.00;101505.72;5020713;28;20046;-73
2023/09/29 02:15:34;;;;;;;58.75;56.28;;;;;;;9.25;100.00;101501.22;5027854;28;20056;-73
2023/09/29 02:18:09;;;;;;;60.45;57.80;;;;;;;9.38;100.00;101504.13;5030460;28;20080;-74
2023/09/29 02:20:41;;;;;;;52.08;49.92;;;;;;;9.37;100.00;101507.75;5030064;28;20489;-73
2023/09/29 02:23:08;;;;;;;49.58;47.42;;;;;;;8.87;100.00;101505.66;5024195;28;20047;-73
2023/09/29 02:25:36;;;;;;;50.35;48.15;;;;;;;8.82;100.00;101506.16;5030685;28;20449;-74
2023/09/29 02:28:06;;;;;;;52.30;50.10;;;;;;;9.10;100.00;101508.31;5047456;28;20051;-73
2023/09/29 02:30:34;;;;;;;41.40;39.40;;;;;;;9.07;100.00;101513.97;5052292;28;20059;-73
2023/09/29 02:33:01;;;;;;;44.15;42.25;;;;;;;9.16;100.00;101516.38;5062394;28;20053;-73
2023/09/29 02:35:29;;;;;;;35.95;34.20;;;;;;;9.04;100.00;101514.31;5065772;28;20049;-72
2023/09/29 02:37:56;;;;;;;38.10;36.30;;;;;;;8.78;100.00;101522.59;5065377;28;20497;-73
2023/09/29 02:40:23;;;;;;;51.65;49.45;;;;;;;8.98;100.00;101515.00;5051547;28;20060;-73
2023/09/29 02:42:59;;;;;;;53.17;50.38;;;;;;;9.17;100.00;101518.03;5050539;28;20513;-73
2023/09/29 02:45:27;;;;;;;53.13;50.83;;;;;;;9.23;100.00;101519.16;5043625;28;20041;-73
2023/09/29 02:48:27;;;;;;;50.35;48.15;;;;;;;9.06;100.00;101522.91;5056930;28;20045;-74
2023/09/29 02:51:25;;;;;;;41.85;39.85;;;;;;;9.13;100.00;101524.66;5053891;28;20052;-72
2023/09/29 02:53:54;;;;;;;48.35;46.22;;;;;;;8.82;100.00;101527.34;4972096;28;20059;-73
2023/09/29 02:56:23;;;;;;;69.10;66.07;;;;;;;8.22;100.00;101535.88;5042754;28;20123;-73
2023/09/29 02:58:52;;;;;;;69.28;66.28;;;;;;;8.57;100.00;101526.69;5051955;28;20056;-73
2023/09/29 03:01:22;;;;;;;63.95;61.15;;;;;;;8.74;100.00;101537.16;5049354;28;20045;-74
2023/09/29 03:03:49;;;;;;;58.25;55.65;;;;;;;8.80;100.00;101533.81;5045405;28;20051;-73
2023/09/29 03:06:20;;;;;;;49.30;47.00;;;;;;;8.64;100.00;101534.75;5044036;28;20055;-73
2023/09/29 03:08:54;;;;;;;61.85;59.05;;;;;;;8.64;100.00;101537.41;5047185;28;20153;-74
2023/09/29 03:11:25;;;;;;;63.72;60.85;;;;;;;8.71;100.00;101538.34;5047937;28;20045;-74
2023/09/29 03:13:54;;;;;;;56.72;54.05;;;;;;;7.77;100.00;101542.56;5047984;28;20045;-73
2023/09/29 03:16:24;;;;;;;51.10;48.70;;;;;;;8.77;100.00;101534.19;5051798;28;20088;-74
2023/09/29 03:18:51;;;;;;;58.83;56.13;;;;;;;8.72;100.00;101532.06;5042598;28;20049;-74
2023/09/29 03:21:20;;;;;;;52.88;50.33;;;;;;;8.89;100.00;101524.84;5052236;28;20049;-73
2023/09/29 03:23:47;;;;;;;40.30;38.15;;;;;;;8.59;100.00;101529.13;5062119;28;20052;-74
2023/09/29 03:26:17;;;;;;;39.13;37.35;;;;;;;7.77;100.00;101534.63;5048438;28;20077;-74
2023/09/29 03:28:54;;;;;;;32.63;31.08;;;;;;;8.51;100.00;101534.50;5024502;28;20064;-73
2023/09/29 03:31:22;;;;;;;58.08;55.47;;;;;;;8.56;100.00;101540.06;5028357;28;20462;-73
2023/09/29 03:33:49;;;;;;;57.70;55.10;;;;;;;8.61;100.00;101538.56;5032612;28;20041;-73
2023/09/29 03:36:20;;;;;;;68.32;65.55;;;;;;;8.53;100.00;101543.06;5026196;28;20045;-73
2023/09/29 03:38:55;;;;;;;60.67;58.10;;;;;;;8.51;100.00;101537.13;5032462;28;20056;-73
2023/09/29 03:41:23;;;;;;;77.30;74.20;;;;;;;8.60;100.00;101539.56;5030495;28;20057;-72
2023/09/29 03:44:02;;;;;;;50.65;48.35;;;;;;;8.79;100.00;101542.78;5021946;28;20442;-73
2023/09/29 03:46:36;;;;;;;62.25;59.20;;;;;;;8.46;100.00;101548.22;5029633;28;20042;-73
2023/09/29 03:49:03;;;;;;;80.05;76.05;;;;;;;8.32;100.00;101552.41;5029839;28;20492;-72
2023/09/29 03:51:44;;;;;;;78.45;74.72;;;;;;;8.53;100.00;101545.72;4677843;28;10000148;-72
2023/09/29 03:54:11;;;;;;;88.40;84.07;;;;;;;8.61;100.00;101546.50;5012742;28;20440;-73
2023/09/29 03:56:38;;;;;;;83.38;79.25;;;;;;;8.52;100.00;101546.72;5018925;28;20445;-73
2023/09/29 03:59:05;;;;;;;80.32;76.32;;;;;;;8.18;100.00;101547.81;5020052;28;20057;-72
2023/09/29 04:01:35;;;;;;;66.57;59.83;;;;;;;7.86;100.00;101552.16;5020913;28;20050;-72
2023/09/29 04:04:03;;;;;;;72.95;68.85;;;;;;;8.42;100.00;101546.94;5018505;28;20423;-72
2023/09/29 04:06:30;;;;;;;64.20;59.08;;;;;;;8.32;100.00;101549.75;5020020;28;20442;-74
2023/09/29 04:08:57;;;;;;;25.20;23.52;;;;;;;8.58;100.00;101546.84;5017429;28;20504;-73
2023/09/29 04:11:24;;;;;;;24.20;22.70;;;;;;;8.83;100.00;101544.06;5023129;28;20061;-74
2023/09/29 04:13:51;;;;;;;24.73;23.02;;;;;;;8.92;100.00;101548.31;5019536;28;20530;-74
2023/09/29 04:16:18;;;;;;;23.20;21.90;;;;;;;8.85;100.00;101547.38;5017408;28;20446;-74
2023/09/29 04:18:47;;;;;;;19.67;18.67;;;;;;;8.24;100.00;101544.47;5026008;28;20064;-73
2023/09/29 04:21:15;;;;;;;20.02;18.83;;;;;;;8.65;100.00;101552.28;5017241;28;20135;-73
2023/09/29 04:23:42;;;;;;;21.17;19.98;;;;;;;8.87;100.00;101550.69;5023510;28;21028;-74
2023/09/29 04:26:15;;;;;;;21.73;20.52;;;;;;;8.74;100.00;101548.59;5026613;28;20152;-74
2023/09/29 04:28:42;;;;;;;20.35;19.25;;;;;;;8.64;100.00;101551.47;5027067;28;20471;-73
2023/09/29 04:31:10;;;;;;;21.23;20.02;;;;;;;8.65;100.00;101553.13;5022565;28;20427;-74
2023/09/29 04:33:36;;;;;;;22.00;20.73;;;;;;;8.87;100.00;101548.88;5026377;28;20053;-74
2023/09/29 04:36:05;;;;;;;20.35;19.15;;;;;;;8.78;100.00;101557.84;5026033;28;20364;-73
2023/09/29 04:38:32;;;;;;;23.15;21.85;;;;;;;8.67;100.00;101545.00;5029191;28;20041;-75
2023/09/29 04:40:59;;;;;;;23.83;22.52;;;;;;;8.92;100.00;101549.16;5024569;28;21026;-73
2023/09/29 04:43:28;;;;;;;22.77;21.48;;;;;;;8.83;100.00;101552.84;5026517;28;20064;-72
2023/09/29 04:45:55;;;;;;;24.67;23.27;;;;;;;8.90;100.00;101553.00;5025893;28;20053;-73
2023/09/29 04:48:22;;;;;;;21.73;20.55;;;;;;;9.05;100.00;101553.06;5029018;28;20484;-73
2023/09/29 04:50:49;;;;;;;23.10;21.80;;;;;;;9.22;100.00;101551.13;5026955;28;20080;-73
2023/09/29 04:53:17;;;;;;;21.25;19.98;;;;;;;9.58;100.00;101554.00;5027524;28;20046;-73
2023/09/29 04:55:44;;;;;;;22.67;21.38;;;;;;;9.70;100.00;101563.16;5028946;28;20052;-72
2023/09/29 04:58:11;;;;;;;22.17;20.88;;;;;;;9.89;100.00;101559.16;5020569;28;20049;-73
2023/09/29 05:00:38;;;;;;;28.67;27.17;;;;;;;9.94;100.00;101561.31;5028627;28;20049;-73
2023/09/29 05:03:05;;;;;;;24.80;23.40;;;;;;;10.11;100.00;101560.13;5025070;28;20503;-72
2023/09/29 05:05:33;;;;;;;23.48;22.17;;;;;;;10.22;100.00;101564.97;5029051;28;20088;-72
2023/09/29 05:08:00;;;;;;;25.20;23.73;;;;;;;10.30;100.00;101564.91;5024302;28;20045;-72
2023/09/29 05:10:28;;;;;;;24.70;22.88;;;;;;;10.13;100.00;101566.06;5027973;28;20053;-72
2023/09/29 05:12:55;;;;;;;26.85;25.13;;;;;;;10.53;100.00;101564.00;5020274;28;20053;-72
2023/09/29 05:15:22;;;;;;;26.80;24.58;;;;;;;10.77;100.00;101560.19;5029265;28;20060;-72
2023/09/29 05:17:49;;;;;;;25.70;24.17;;;;;;;11.04;100.00;101561.31;5025603;28;20124;-72
2023/09/29 05:20:16;;;;;;;24.85;23.02;;;;;;;11.13;100.00;101564.69;5029122;28;20060;-72
2023/09/29 05:22:43;;;;;;;23.35;21.60;;;;;;;11.16;100.00;101559.81;5024327;28;20045;-72
2023/09/29 05:25:10;;;;;;;26.70;24.80;;;;;;;11.35;100.00;101569.00;5028014;28;20056;-72
2023/09/29 05:27:38;;;;;;;25.60;23.88;;;;;;;11.31;100.00;101565.06;5041081;28;20601;-72
2023/09/29 05:30:06;;;;;;;26.63;25.02;;;;;;;11.75;100.00;101574.69;5053988;28;20517;-72
2023/09/29 05:32:33;;;;;;;24.23;22.70;;;;;;;11.82;100.00;101569.41;5051134;28;20052;-73
2023/09/29 05:35:00;;;;;;;22.83;21.33;;;;;;;11.79;100.00;101569.78;5056149;28;20132;-73
2023/09/29 05:37:27;;;;;;;26.25;24.42;;;;;;;11.85;100.00;101574.38;5059431;28;20053;-72
2023/09/29 05:39:53;;;;;;;22.55;21.35;;;;;;;12.23;100.00;101584.69;5057801;28;20045;-73
2023/09/29 05:42:21;;;;;;;29.35;27.85;;;;;;;12.20;100.00;101574.41;5061505;28;20056;-73
2023/09/29 05:44:49;;;;;;;28.58;26.88;;;;;;;12.38;100.00;101578.19;5048311;28;20045;-73
2023/09/29 05:47:17;;;;;;;28.92;27.42;;;;;;;12.48;100.00;101579.69;5054913;28;20045;-73
2023/09/29 05:49:44;;;;;;;32.35;30.70;;;;;;;12.77;100.00;101576.75;5060987;28;20048;-73
2023/09/29 05:52:12;;;;;;;32.45;30.85;;;;;;;12.71;100.00;101580.22;5056479;28;20068;-72
2023/09/29 05:54:39;;;;;;;35.25;33.55;;;;;;;12.82;100.00;101576.13;5057352;28;20052;-73
2023/09/29 05:57:06;;;;;;;34.03;32.20;;;;;;;19.75;100.00;101571.31;5049953;28;20059;-75
2023/09/29 05:59:32;;;;;;;36.38;34.28;;;;;;;21.98;100.00;101567.81;5048302;28;20052;-75
2023/09/29 06:02:01;;;;;;;36.00;34.10;;;;;;;22.98;100.00;101573.09;5057883;28;20037;-76
2023/09/29 06:04:27;;;;;;;35.03;33.03;;;;;;;23.21;100.00;101575.31;5049721;28;20051;-75
2023/09/29 06:06:54;;;;;;;35.80;33.80;;;;;;;23.14;100.00;101573.94;5054939;28;20068;-75
2023/09/29 06:09:21;;;;;;;34.53;32.63;;;;;;;17.69;100.00;101578.25;5053990;28;20434;-73
2023/09/29 06:11:49;;;;;;;33.97;32.17;;;;;;;15.60;100.00;101587.31;5042219;28;20049;-73
2023/09/29 06:14:16;;;;;;;32.97;31.08;;;;;;;15.26;100.00;101597.44;5058219;28;20047;-73
2023/09/29 06:16:43;;;;;;;34.45;32.55;;;;;;;15.19;100.00;101596.69;5052054;28;20422;-73
2023/09/29 06:19:11;;;;;;;29.88;28.17;;;;;;;15.16;100.00;101591.75;5052802;28;20435;-74
2023/09/29 06:21:38;;;;;;;33.65;31.85;;;;;;;15.11;100.00;101597.75;5056954;28;20481;-73
2023/09/29 06:24:05;;;;;;;33.25;31.55;;;;;;;15.53;100.00;101600.78;5051589;28;20453;-74
2023/09/29 06:26:32;;;;;;;34.58;32.88;;;;;;;15.83;100.00;101600.16;5043961;28;20057;-73
2023/09/29 06:29:00;;;;;;;32.33;30.63;;;;;;;16.10;100.00;101590.03;5022492;28;20431;-73
2023/09/29 06:31:27;;;;;;;30.88;29.27;;;;;;;16.30;100.00;101592.47;5019865;28;20068;-73
2023/09/29 06:33:53;;;;;;;31.33;29.73;;;;;;;16.47;100.00;101598.09;5024922;28;20047;-73
2023/09/29 06:36:23;;;;;;;33.00;31.30;;;;;;;16.25;100.00;101593.16;5026981;28;20084;-74
2023/09/29 06:38:50;;;;;;;32.08;30.35;;;;;;;16.66;100.00;101597.03;5029033;28;20442;-73
2023/09/29 06:41:17;;;;;;;30.52;28.92;;;;;;;16.93;100.00;101594.03;5027159;28;20124;-74
2023/09/29 06:43:45;;;;;;;30.10;28.50;;;;;;;17.31;100.00;101590.22;5026624;28;20076;-73
2023/09/29 06:46:12;;;;;;;30.33;28.65;;;;;;;17.51;100.00;101585.34;5025731;28;20045;-73
2023/09/29 06:48:39;;;;;;;32.45;30.65;;;;;;;17.64;100.00;101581.66;5024260;28;20064;-73
2023/09/29 06:51:07;;;;;;;29.15;27.55;;;;;;;18.12;100.00;101582.47;5027890;28;20053;-73
2023/09/29 06:53:35;;;;;;;27.50;26.00;;;;;;;18.21;100.00;101584.56;5026630;28;20465;-73
2023/09/29 06:56:02;;;;;;;26.05;24.45;;;;;;;18.77;100.00;101585.78;5025601;28;20503;-73
2023/09/29 06:58:29;;;;;;;25.50;23.90;;;;;;;19.02;100.00;101589.19;5025964;28;20099;-73
2023/09/29 07:00:57;;;;;;;24.90;23.40;;;;;;;19.11;100.00;101582.34;5030308;28;20431;-74
2023/09/29 07:03:24;;;;;;;23.02;21.52;;;;;;;19.24;100.00;101579.34;5031992;28;20060;-73
2023/09/29 07:05:52;;;;;;;25.10;23.60;;;;;;;19.47;100.00;101589.19;5030591;28;20045;-74
2023/09/29 07:08:19;;;;;;;26.20;24.70;;;;;;;19.77;100.00;101590.78;5032418;28;20072;-73
2023/09/29 07:10:47;;;;;;;27.52;25.90;;;;;;;20.20;100.00;101590.03;5029793;28;20063;-73
2023/09/29 07:13:15;;;;;;;29.67;27.63;;;;;;;20.50;100.00;101584.22;5030239;28;20068;-73
2023/09/29 07:15:41;;;;;;;26.95;25.45;;;;;;;20.58;100.00;101583.81;5029504;28;20423;-73
2023/09/29 07:18:10;;;;;;;27.35;25.85;;;;;;;20.62;100.00;101576.03;5031477;28;20049;-73
2023/09/29 07:20:38;;;;;;;31.17;29.42;;;;;;;20.91;100.00;101586.59;5030712;28;20052;-74
2023/09/29 07:23:05;;;;;;;26.80;25.40;;;;;;;21.25;100.00;101581.81;5032004;28;20065;-73
2023/09/29 07:25:33;;;;;;;27.90;26.30;;;;;;;21.99;100.00;101572.13;5029397;28;20400;-73
2023/09/29 07:28:01;;;;;;;25.80;24.30;;;;;;;22.21;100.00;101572.84;5044069;28;20057;-74
2023/09/29 07:30:28;;;;;;;24.45;23.05;;;;;;;22.72;100.00;101577.59;5056726;28;20051;-74
2023/09/29 07:32:54;;;;;;;25.70;24.00;;;;;;;22.47;100.00;101579.16;5053723;28;20544;-74
2023/09/29 07:35:24;;;;;;;26.90;25.30;;;;;;;21.99;100.00;101575.63;5056685;28;20063;-74
2023/09/29 07:37:51;;;;;;;27.95;26.25;;;;;;;23.04;100.00;101580.97;5057951;28;20449;-74
2023/09/29 07:40:18;;;;;;;27.45;25.67;;;;;;;22.21;100.00;101580.09;5061017;28;20045;-73
2023/09/29 07:42:45;;;;;;;26.00;24.40;;;;;;;21.65;100.00;101578.66;5053416;28;20537;-74
2023/09/29 07:45:14;;;;;;;26.30;24.70;;;;;;;22.46;100.00;101576.72;5059652;28;20053;-74
2023/09/29 07:47:41;;;;;;;27.45;25.65;;;;;;;21.91;100.00;101585.06;5057958;28;20486;-74
2023/09/29 07:50:09;;;;;;;44.17;28.48;;;;;;;21.92;100.00;101584.00;5049686;28;20568;-74
2023/09/29 07:52:38;;;;;;;26.15;24.52;;;;;;;22.19;100.00;101574.97;5056983;28;20056;-74
2023/09/29 07:55:06;;;;;;;23.58;21.83;;;;;;;22.27;100.00;101576.34;5053182;28;20083;-73
2023/09/29 07:57:33;;;;;;;24.20;22.00;;;;;;;22.68;100.00;101569.22;5050828;28;20075;-74
2023/09/29 08:00:00;;;;;;;22.33;20.83;;;;;;;22.70;100.00;101568.97;5053892;28;20052;-73
2023/09/29 08:02:28;;;;;;;25.00;23.40;;;;;;;23.16;100.00;101567.16;5056433;28;20044;-74
2023/09/29 08:04:55;;;;;;;23.70;22.10;;;;;;;23.57;100.00;101577.19;5054965;28;20051;-74
2023/09/29 08:07:22;;;;;;;24.10;22.60;;;;;;;23.69;100.00;101573.16;5058238;28;20524;-74
2023/09/29 08:09:50;;;;;;;25.27;23.65;;;;;;;23.74;93.92;101573.13;5052396;28;20463;-73
2023/09/29 08:12:17;;;;;;;24.00;22.50;;;;;;;23.17;100.00;101568.78;5053741;28;20553;-74
2023/09/29 08:14:44;;;;;;;26.38;24.60;;;;;;;23.69;93.35;101566.88;5056021;28;20055;-73
2023/09/29 08:17:11;;;;;;;26.02;24.42;;;;;;;23.81;100.00;101563.91;5053160;28;20491;-74
2023/09/29 08:19:40;;;;;;;22.50;21.00;;;;;;;24.77;86.49;101562.75;5050614;28;20071;-73
2023/09/29 08:22:07;;;;;;;25.13;23.42;;;;;;;24.53;92.07;101564.50;5051401;28;20498;-73
2023/09/29 08:24:35;;;;;;;24.77;22.80;;;;;;;25.94;74.14;101566.44;5054009;28;20055;-73
2023/09/29 08:27:02;;;;;;;25.92;24.23;;;;;;;25.33;70.87;101562.38;5053071;28;20441;-74
2023/09/29 08:29:29;;;;;;;26.02;24.40;;;;;;;23.93;96.53;101561.72;5050010;28;20051;-74
2023/09/29 08:31:58;;;;;;;23.65;22.00;;;;;;;24.55;96.08;101562.34;5042809;28;20052;-73
2023/09/29 08:34:25;;;;;;;24.33;22.73;;;;;;;24.21;96.13;101563.00;5049759;28;20088;-73
2023/09/29 08:36:56;;;;;;;24.70;22.80;;;;;;;24.32;96.90;101547.47;5049770;28;20049;-74
2023/09/29 08:39:23;;;;;;;24.60;22.90;;;;;;;25.70;81.45;101558.22;5050593;28;20056;-74
2023/09/29 08:41:58;;;;;;;24.60;22.90;;;;;;;26.36;66.14;101545.00;5050017;28;20053;-74
2023/09/29 08:44:27;;;;;;;24.40;22.80;;;;;;;27.05;66.90;101548.09;5046742;28;20063;-74
2023/09/29 08:46:58;;;;;;;24.67;23.08;;;;;;;27.30;58.93;101553.19;5046685;28;20556;-74
2023/09/29 08:49:24;;;;;;;28.63;26.83;;;;;;;27.13;58.97;101545.53;5049160;28;20541;-74
2023/09/29 08:51:58;;;;;;;23.83;22.33;;;;;;;26.52;61.95;101553.81;5044551;28;20045;-74
2023/09/29 08:54:26;;;;;;;22.48;20.98;;;;;;;26.85;60.38;101552.78;5048048;28;20052;-74
2023/09/29 08:56:54;;;;;;;24.70;23.00;;;;;;;27.51;57.40;101547.38;5046430;28;20481;-74
2023/09/29 08:59:22;;;;;;;24.80;23.13;;;;;;;26.47;66.04;101551.91;5045606;28;20064;-74
2023/09/29 09:01:51;;;;;;;21.90;20.20;;;;;;;27.68;56.81;101549.53;5046769;28;20056;-73
2023/09/29 09:04:18;;;;;;;21.30;19.70;;;;;;;28.07;56.20;101547.13;5048163;28;20498;-73
2023/09/29 09:06:44;;;;;;;21.48;19.88;;;;;;;28.21;53.32;101544.41;5045315;28;20133;-74
2023/09/29 09:09:13;;;;;;;23.00;21.30;;;;;;;28.59;52.67;101548.81;5047013;28;20080;-74
2023/09/29 09:11:43;;;;;;;23.77;22.17;;;;;;;29.27;47.44;101541.50;5047314;28;20049;-74
2023/09/29 09:14:10;;;;;;;22.95;21.35;;;;;;;29.04;44.50;101544.22;5045946;28;20560;-73
2023/09/29 09:16:40;;;;;;;23.05;21.45;;;;;;;28.07;50.04;101538.13;5048654;28;20056;-74
2023/09/29 09:19:10;;;;;;;25.42;23.73;;;;;;;27.88;54.20;101538.25;5048164;28;20161;-74
2023/09/29 09:21:37;;;;;;;25.27;23.50;;;;;;;29.29;47.08;101531.84;5047555;28;20060;-74
2023/09/29 09:24:05;;;;;;;24.10;22.40;;;;;;;29.65;43.45;101531.75;5042928;28;20068;-74
2023/09/29 09:26:33;;;;;;;23.48;21.88;;;;;;;29.30;40.87;101528.00;5050632;28;20127;-73
2023/09/29 09:29:08;;;;;;;24.08;22.38;;;;;;;28.88;43.51;101534.75;5058554;28;20052;-74
2023/09/29 09:31:45;;;;;;;26.00;23.67;;;;;;;28.05;51.05;101529.47;5055160;28;20048;-74
2023/09/29 09:34:14;;;;;;;26.27;23.92;;;;;;;27.50;47.75;101522.00;5057726;28;20049;-74
2023/09/29 09:36:52;;;;;;;25.45;23.55;;;;;;;27.81;51.97;101527.75;5056965;28;20048;-74
2023/09/29 09:39:23;;;;;;;26.88;24.20;;;;;;;27.76;53.84;101527.00;5054741;28;20091;-75
2023/09/29 09:41:53;;;;;;;24.53;22.73;;;;;;;27.85;47.12;101525.22;5040699;28;20052;-74
2023/09/29 09:44:21;;;;;;;23.67;21.98;;;;;;;27.75;56.06;101526.19;5051663;28;20388;-74
2023/09/29 09:46:54;;;;;;;23.55;21.85;;;;;;;27.75;47.13;101523.47;5049023;28;20083;-74
2023/09/29 09:49:29;;;;;;;26.08;24.38;;;;;;;28.60;48.45;101512.19;5054655;28;20049;-75
2023/09/29 09:52:03;;;;;;;25.83;24.13;;;;;;;29.17;49.35;101521.50;5056291;28;20132;-74
2023/09/29 09:54:36;;;;;;;24.13;22.63;;;;;;;28.28;51.26;101520.22;5058486;28;20098;-74
2023/09/29 09:57:08;;;;;;;22.58;21.08;;;;;;;28.67;48.66;101515.28;5054930;28;20057;-75
2023/09/29 09:59:35;;;;;;;22.58;20.88;;;;;;;29.28;48.17;101523.94;5059359;28;20053;-74
2023/09/29 10:02:06;;;;;;;25.90;24.10;;;;;;;29.86;43.78;101510.06;5051384;28;20049;-75
2023/09/29 10:04:36;;;;;;;22.63;21.08;;;;;;;28.83;47.00;101508.34;5050281;28;20053;-75
2023/09/29 10:07:04;;;;;;;24.63;23.02;;;;;;;30.42;42.33;101502.16;5047179;28;20157;-75
2023/09/29 10:09:41;;;;;;;26.15;24.55;;;;;;;30.44;42.44;101502.66;5047120;28;20053;-75
2023/09/29 10:12:10;;;;;;;26.27;24.48;;;;;;;27.99;52.06;101509.66;5055535;28;20049;-74
2023/09/29 10:14:44;;;;;;;27.17;25.48;;;;;;;30.09;41.44;101497.09;5051115;28;20064;-75
2023/09/29 10:17:12;;;;;;;30.10;28.20;;;;;;;28.42;48.56;101497.56;5050178;28;20053;-75
2023/09/29 10:19:40;;;;;;;32.47;30.27;;;;;;;29.81;43.63;101493.81;5050628;28;20425;-75
2023/09/29 10:22:08;;;;;;;27.48;25.48;;;;;;;29.63;43.38;101492.94;5055121;28;20044;-75
2023/09/29 10:24:35;;;;;;;25.35;23.60;;;;;;;30.06;41.29;101485.97;5056493;28;20132;-75
2023/09/29 10:27:05;;;;;;;24.60;22.77;;;;;;;28.45;43.07;101480.56;5052104;28;20053;-75
2023/09/29 10:29:35;;;;;;;26.30;24.30;;;;;;;29.02;45.92;101480.03;5026745;28;20104;-75
2023/09/29 10:32:13;;;;;;;24.70;23.00;;;;;;;29.91;44.70;101476.28;5020145;28;20115;-75
2023/09/29 10:34:40;;;;;;;26.20;24.35;;;;;;;29.08;44.00;101476.03;5025446;28;20085;-75
2023/09/29 10:37:09;;;;;;;26.48;24.77;;;;;;;30.50;41.35;101463.00;5028123;28;20041;-75
2023/09/29 10:39:36;;;;;;;25.23;23.52;;;;;;;30.59;42.32;101462.97;5025566;28;20485;-75
2023/09/29 10:42:12;;;;;;;22.63;21.02;;;;;;;30.43;41.09;101459.13;5027807;28;20073;-75
2023/09/29 10:44:45;;;;;;;24.98;23.17;;;;;;;28.22;48.54;101453.16;5025045;28;20050;-75
2023/09/29 10:47:13;;;;;;;24.38;22.77;;;;;;;29.16;42.26;101464.34;5023530;28;20046;-75
2023/09/29 10:49:45;;;;;;;25.60;23.90;;;;;;;27.97;52.36;101461.94;5026428;28;20081;-75
2023/09/29 10:52:17;;;;;;;;;;;;;;;28.68;45.34;101454.03;5028463;28;20103;-75
2023/09/29 10:54:44;;;;;;;27.90;26.10;;;;;;;29.68;44.12;101450.91;5027304;28;20417;-75
2023/09/29 10:57:11;;;;;;;29.35;27.45;;;;;;;30.37;41.00;101435.75;5026605;28;20042;-75
2023/09/29 10:59:48;;;;;;;24.60;23.00;;;;;;;30.45;40.19;101437.69;5025369;28;20050;-75
2023/09/29 11:02:16;;;;;;;24.25;22.55;;;;;;;30.62;41.41;101442.34;5021930;28;20107;-75
2023/09/29 11:04:46;;;;;;;26.02;24.23;;;;;;;28.53;43.99;101439.66;5024186;28;20045;-74
2023/09/29 11:07:15;;;;;;;29.75;27.85;;;;;;;28.54;43.50;101435.81;5019629;28;20438;-75
2023/09/29 11:09:42;;;;;;;24.10;22.40;;;;;;;30.17;42.06;101429.75;5023364;28;20443;-74
2023/09/29 11:12:17;;;;;;;26.42;24.63;;;;;;;28.98;45.24;101425.94;5018687;28;20057;-75
2023/09/29 11:14:44;;;;;;;29.98;27.70;;;;;;;31.71;40.84;101430.88;5025071;28;20057;-75